createdAt,value
2019-05-19T00:00:09.327Z,27.20
2019-05-19T00:02:40.703Z,25.83
2019-05-19T00:05:07.887Z,27.73
2019-05-19T00:07:36.271Z,28.10
2019-05-19T00:10:06.475Z,29.10
2019-05-19T00:12:34.919Z,28.97
2019-05-19T00:15:04.535Z,30.07
2019-05-19T00:17:32.928Z,31.13
2019-05-19T00:20:01.692Z,34.37
2019-05-19T00:22:30.067Z,35.70
2019-05-19T00:24:58.447Z,33.53
2019-05-19T00:27:26.827Z,33.53
2019-05-19T00:29:55.211Z,35.00
2019-05-19T00:32:23.607Z,35.37
2019-05-19T00:34:51.995Z,36.87
2019-05-19T00:37:20.449Z,37.27
2019-05-19T00:39:48.827Z,39.07
2019-05-19T00:42:17.215Z,37.97
2019-05-19T00:44:45.596Z,39.57
2019-05-19T00:47:14.064Z,40.00
2019-05-19T00:49:42.447Z,38.00
2019-05-19T00:52:10.835Z,39.80
2019-05-19T00:54:39.211Z,38.97
2019-05-19T00:57:07.941Z,40.10
2019-05-19T00:59:37.155Z,42.70
2019-05-19T01:02:05.620Z,43.13
2019-05-19T01:04:33.992Z,43.50
2019-05-19T01:07:02.371Z,42.40
2019-05-19T01:09:30.765Z,44.10
2019-05-19T01:11:59.142Z,44.73
2019-05-19T01:14:27.533Z,45.40
2019-05-19T01:16:55.907Z,47.40
2019-05-19T01:19:24.291Z,46.13
2019-05-19T01:21:53.121Z,47.07
2019-05-19T01:24:21.511Z,47.83
2019-05-19T01:26:49.895Z,47.30
2019-05-19T01:29:18.268Z,49.53
2019-05-19T01:31:46.661Z,52.60
2019-05-19T01:34:15.040Z,56.87
2019-05-19T01:36:43.439Z,55.10
2019-05-19T01:39:11.819Z,60.83
2019-05-19T01:41:40.213Z,59.63
2019-05-19T01:44:08.597Z,59.37
2019-05-19T01:46:36.992Z,60.70
2019-05-19T01:49:05.375Z,61.77
2019-05-19T01:51:33.753Z,56.10
2019-05-19T01:54:02.145Z,56.73
2019-05-19T01:56:30.525Z,55.37
2019-05-19T01:58:58.922Z,57.33
2019-05-19T02:01:27.294Z,54.90
2019-05-19T02:03:55.687Z,53.97
2019-05-19T02:06:24.067Z,53.53
2019-05-19T02:08:52.459Z,55.17
2019-05-19T02:11:20.839Z,54.83
2019-05-19T02:13:49.220Z,55.27
2019-05-19T02:16:17.611Z,54.10
2019-05-19T02:18:45.987Z,55.40
2019-05-19T02:21:14.377Z,57.87
2019-05-19T02:23:42.763Z,56.40
2019-05-19T02:26:11.154Z,59.13
2019-05-19T02:28:39.543Z,59.17
2019-05-19T02:31:08.018Z,60.97
2019-05-19T02:33:36.469Z,61.37
2019-05-19T02:36:05.028Z,60.87
2019-05-19T02:38:33.423Z,61.77
2019-05-19T02:41:04.513Z,63.90
2019-05-19T02:43:34.242Z,60.93
2019-05-19T02:46:04.128Z,64.43
2019-05-19T02:48:33.223Z,62.47
2019-05-19T02:51:03.443Z,62.43
2019-05-19T02:53:33.040Z,61.67
2019-05-19T02:56:02.893Z,62.00
2019-05-19T02:58:32.367Z,62.40
2019-05-19T03:01:00.757Z,64.73
2019-05-19T03:03:29.145Z,64.53
2019-05-19T03:05:57.548Z,67.77
2019-05-19T03:08:25.986Z,65.93
2019-05-19T03:10:54.376Z,65.83
2019-05-19T03:13:22.752Z,64.70
2019-05-19T03:15:51.137Z,67.13
2019-05-19T03:18:19.528Z,68.93
2019-05-19T03:20:47.906Z,69.57
2019-05-19T03:23:16.301Z,69.47
2019-05-19T03:25:44.698Z,67.90
2019-05-19T03:28:13.082Z,68.73
2019-05-19T03:30:55.217Z,70.67
2019-05-19T03:33:25.257Z,72.23
2019-05-19T03:35:53.680Z,74.03
2019-05-19T03:38:22.264Z,74.90
2019-05-19T03:40:51.006Z,75.40
2019-05-19T03:43:19.388Z,78.10
2019-05-19T03:45:47.785Z,77.63
2019-05-19T03:48:16.159Z,79.47
2019-05-19T03:50:44.552Z,78.23
2019-05-19T03:53:12.940Z,77.07
2019-05-19T03:55:41.334Z,73.23
2019-05-19T03:58:09.716Z,77.17
2019-05-19T04:00:38.095Z,73.47
2019-05-19T04:03:06.485Z,75.43
2019-05-19T04:05:34.879Z,76.40
2019-05-19T04:08:03.255Z,72.80
2019-05-19T04:10:31.655Z,72.43
2019-05-19T04:13:00.031Z,73.13
2019-05-19T04:15:28.424Z,69.67
2019-05-19T04:17:56.808Z,70.50
2019-05-19T04:20:25.183Z,68.30
2019-05-19T04:22:53.583Z,71.40
2019-05-19T04:25:41.304Z,69.63
2019-05-19T04:28:09.700Z,72.53
2019-05-19T04:30:38.084Z,72.97
2019-05-19T04:33:06.466Z,69.57
2019-05-19T04:35:34.860Z,67.37
2019-05-19T04:38:03.240Z,68.17
2019-05-19T04:40:31.712Z,65.43
2019-05-19T04:43:00.102Z,65.17
2019-05-19T04:45:28.485Z,64.47
2019-05-19T04:47:56.865Z,59.27
2019-05-19T04:50:25.259Z,56.30
2019-05-19T04:52:53.632Z,54.20
2019-05-19T04:55:22.091Z,54.73
2019-05-19T04:57:50.471Z,52.90
2019-05-19T05:00:19.183Z,52.43
2019-05-19T05:02:47.575Z,48.10
2019-05-19T05:05:16.292Z,48.80
2019-05-19T05:07:44.682Z,49.73
2019-05-19T05:10:13.803Z,47.23
2019-05-19T05:12:42.175Z,47.63
2019-05-19T05:15:10.625Z,47.63
2019-05-19T05:17:39.011Z,47.37
2019-05-19T05:20:08.423Z,47.83
2019-05-19T05:22:36.885Z,45.43
2019-05-19T05:25:08.721Z,45.27
2019-05-19T05:27:37.090Z,45.10
2019-05-19T05:30:07.119Z,43.20
2019-05-19T05:32:35.495Z,43.47
2019-05-19T05:35:05.536Z,41.43
2019-05-19T05:37:33.907Z,40.43
2019-05-19T05:40:02.327Z,41.07
2019-05-19T05:42:31.927Z,40.70
2019-05-19T05:45:00.607Z,44.30
2019-05-19T05:47:28.995Z,41.07
2019-05-19T05:49:57.376Z,43.00
2019-05-19T05:52:37.982Z,41.80
2019-05-19T05:54:55.863Z,42.30
2019-05-19T05:57:24.239Z,40.47
2019-05-19T05:59:52.628Z,39.73
2019-05-19T06:02:21.006Z,40.73
2019-05-19T06:04:49.395Z,41.17
2019-05-19T06:07:17.777Z,37.00
2019-05-19T06:09:46.174Z,38.43
2019-05-19T06:12:14.575Z,37.23
2019-05-19T06:14:43.207Z,38.23
2019-05-19T06:17:11.595Z,38.77
2019-05-19T06:19:39.972Z,38.73
2019-05-19T06:22:08.364Z,38.90
2019-05-19T06:24:36.735Z,38.77
2019-05-19T06:27:05.130Z,37.07
2019-05-19T06:29:33.504Z,37.77
2019-05-19T06:32:03.536Z,39.60
2019-05-19T06:34:31.915Z,41.63
2019-05-19T06:37:00.305Z,38.63
2019-05-19T06:39:28.691Z,37.17
2019-05-19T06:41:57.067Z,38.37
2019-05-19T06:44:25.435Z,38.37
2019-05-19T06:46:53.823Z,38.43
2019-05-19T06:49:22.200Z,37.10
2019-05-19T06:51:50.592Z,38.03
2019-05-19T06:54:18.972Z,38.60
2019-05-19T06:56:47.896Z,38.30
2019-05-19T06:59:16.286Z,40.47
2019-05-19T07:01:44.656Z,42.10
2019-05-19T07:04:13.064Z,42.27
2019-05-19T07:06:41.504Z,40.67
2019-05-19T07:09:09.919Z,41.00
2019-05-19T07:11:38.303Z,41.37
2019-05-19T07:14:06.697Z,41.87
2019-05-19T07:16:35.067Z,41.70
2019-05-19T07:19:03.452Z,42.60
2019-05-19T07:21:31.850Z,40.80
2019-05-19T07:24:00.224Z,42.30
2019-05-19T07:26:28.614Z,38.70
2019-05-19T07:28:58.929Z,40.27
2019-05-19T07:31:27.108Z,42.60
2019-05-19T07:33:55.480Z,40.97
2019-05-19T07:36:23.861Z,42.37
2019-05-19T07:38:52.264Z,40.03
2019-05-19T07:41:20.649Z,39.93
2019-05-19T07:43:49.100Z,38.50
2019-05-19T07:46:17.493Z,38.00
2019-05-19T07:48:45.961Z,38.23
2019-05-19T07:51:14.335Z,39.87
2019-05-19T07:53:43.453Z,39.73
2019-05-19T07:56:11.883Z,40.27
2019-05-19T07:58:40.285Z,39.17
2019-05-19T08:01:08.681Z,38.93
2019-05-19T08:03:37.048Z,39.77
2019-05-19T08:06:05.518Z,37.03
2019-05-19T08:08:33.920Z,39.60
2019-05-19T08:11:02.303Z,41.20
2019-05-19T08:13:30.683Z,39.63
2019-05-19T08:15:59.148Z,39.53
2019-05-19T08:18:27.528Z,39.50
2019-05-19T08:20:55.922Z,38.80
2019-05-19T08:23:24.301Z,39.73
2019-05-19T08:25:52.685Z,38.80
2019-05-19T08:28:21.063Z,38.60
2019-05-19T08:30:49.447Z,37.67
2019-05-19T08:33:17.865Z,36.90
2019-05-19T08:35:46.241Z,36.03
2019-05-19T08:38:14.615Z,37.63
2019-05-19T08:40:43.018Z,36.50
2019-05-19T08:43:11.545Z,34.07
2019-05-19T08:45:39.994Z,35.53
2019-05-19T08:48:08.370Z,35.23
2019-05-19T08:50:36.747Z,34.03
2019-05-19T08:53:05.135Z,33.70
2019-05-19T08:55:33.520Z,34.65
2019-05-19T08:58:02.145Z,33.48
2019-05-19T09:00:34.143Z,34.95
2019-05-19T09:03:00.735Z,33.48
2019-05-19T09:05:29.134Z,34.48
2019-05-19T09:07:57.508Z,34.15
2019-05-19T09:10:25.908Z,32.33
2019-05-19T09:12:54.287Z,32.55
2019-05-19T09:15:22.667Z,32.17
2019-05-19T09:17:54.087Z,31.20
2019-05-19T09:20:21.712Z,29.75
2019-05-19T09:22:50.095Z,29.63
2019-05-19T09:25:18.491Z,32.20
2019-05-19T09:27:46.867Z,31.35
2019-05-19T09:30:15.604Z,32.85
2019-05-19T09:32:43.982Z,32.63
2019-05-19T09:35:13.967Z,30.55
2019-05-19T09:37:42.363Z,31.02
2019-05-19T09:40:11.071Z,30.02
2019-05-19T09:42:39.444Z,28.92
2019-05-19T09:45:08.785Z,29.00
2019-05-19T09:47:37.706Z,30.48
2019-05-19T09:50:07.075Z,32.42
2019-05-19T09:52:35.448Z,29.32
2019-05-19T09:55:05.139Z,27.73
2019-05-19T09:57:33.708Z,29.50
2019-05-19T10:00:02.227Z,30.85
2019-05-19T10:02:30.616Z,31.27
2019-05-19T10:04:58.996Z,27.10
2019-05-19T10:07:27.387Z,24.27
2019-05-19T10:10:01.108Z,25.35
2019-05-19T10:12:30.039Z,29.35
2019-05-19T10:14:58.491Z,25.48
2019-05-19T10:17:26.892Z,27.42
2019-05-19T10:19:55.260Z,25.25
2019-05-19T10:22:23.632Z,26.45
2019-05-19T10:25:10.522Z,26.70
2019-05-19T10:27:22.407Z,26.25
2019-05-19T10:29:50.816Z,25.12
2019-05-19T10:32:19.200Z,25.20
2019-05-19T10:34:47.580Z,27.13
2019-05-19T10:37:15.985Z,25.27
2019-05-19T10:39:44.348Z,24.63
2019-05-19T10:42:12.744Z,24.32
2019-05-19T10:44:41.128Z,23.95
2019-05-19T10:47:09.522Z,23.45
2019-05-19T10:49:37.963Z,23.87
2019-05-19T10:52:06.412Z,23.67
2019-05-19T10:54:35.567Z,24.72
2019-05-19T10:57:04.016Z,21.45
2019-05-19T10:59:32.403Z,17.27
2019-05-19T11:02:00.776Z,16.35
2019-05-19T11:04:29.179Z,16.57
2019-05-19T11:06:57.554Z,18.23
2019-05-19T11:09:25.934Z,20.97
2019-05-19T11:11:54.311Z,19.70
2019-05-19T11:14:22.703Z,19.73
2019-05-19T11:16:51.092Z,16.00
2019-05-19T11:19:19.464Z,14.25
2019-05-19T11:21:47.844Z,13.75
2019-05-19T11:24:16.231Z,13.40
2019-05-19T11:26:44.624Z,14.35
2019-05-19T11:29:13.367Z,14.50
2019-05-19T11:31:41.755Z,13.08
2019-05-19T11:34:10.138Z,8.60
2019-05-19T11:36:38.503Z,8.40
2019-05-19T11:39:08.032Z,8.15
2019-05-19T11:41:36.471Z,8.15
2019-05-19T11:44:04.955Z,8.78
2019-05-19T11:46:33.443Z,8.75
2019-05-19T11:49:01.874Z,8.83
2019-05-19T11:51:30.307Z,9.85
2019-05-19T11:53:58.687Z,9.90
2019-05-19T11:56:27.063Z,9.83
2019-05-19T11:58:55.447Z,7.72
2019-05-19T12:01:23.819Z,7.80
2019-05-19T12:03:55.255Z,7.60
2019-05-19T12:06:37.616Z,7.37
2019-05-19T12:08:52.408Z,7.90
2019-05-19T12:11:20.800Z,7.72
2019-05-19T12:13:49.184Z,6.87
2019-05-19T12:16:17.552Z,7.30
2019-05-19T12:18:45.928Z,7.78
2019-05-19T12:21:14.308Z,4.95
2019-05-19T12:23:42.694Z,4.87
2019-05-19T12:26:22.680Z,4.53
2019-05-19T12:28:41.176Z,5.65
2019-05-19T12:31:09.629Z,7.30
2019-05-19T12:33:51.163Z,6.15
2019-05-19T12:36:08.130Z,6.78
2019-05-19T12:38:36.503Z,5.70
2019-05-19T12:41:04.876Z,5.08
2019-05-19T12:43:33.252Z,5.45
2019-05-19T12:46:01.662Z,5.70
2019-05-19T12:48:30.108Z,6.75
2019-05-19T12:50:58.504Z,8.35
2019-05-19T12:53:26.881Z,7.53
2019-05-19T12:55:55.255Z,7.58
2019-05-19T12:58:23.657Z,6.85
2019-05-19T13:00:52.015Z,7.90
2019-05-19T13:03:20.412Z,7.92
2019-05-19T13:05:48.784Z,7.60
2019-05-19T13:08:17.168Z,8.20
2019-05-19T13:10:45.559Z,7.65
2019-05-19T13:13:13.941Z,7.97
2019-05-19T13:15:42.319Z,7.08
2019-05-19T13:18:10.702Z,6.55
2019-05-19T13:20:39.072Z,6.08
2019-05-19T13:23:07.459Z,5.37
2019-05-19T13:25:35.865Z,6.17
2019-05-19T13:28:04.356Z,6.87
2019-05-19T13:30:32.730Z,7.00
2019-05-19T13:33:01.111Z,6.65
2019-05-19T13:35:29.505Z,5.75
2019-05-19T13:37:57.957Z,5.97
2019-05-19T13:40:26.346Z,4.22
2019-05-19T13:42:54.711Z,5.00
2019-05-19T13:45:23.175Z,5.20
2019-05-19T13:47:51.559Z,5.53
2019-05-19T13:50:19.942Z,5.37
2019-05-19T13:52:51.121Z,4.87
2019-05-19T13:55:18.423Z,4.83
2019-05-19T13:57:46.792Z,6.30
2019-05-19T14:00:17.772Z,4.55
2019-05-19T14:02:46.179Z,4.83
2019-05-19T14:05:14.560Z,4.10
2019-05-19T14:07:42.940Z,4.28
2019-05-19T14:10:11.856Z,4.22
2019-05-19T14:12:40.236Z,5.70
2019-05-19T14:15:08.611Z,5.20
2019-05-19T14:17:36.987Z,4.90
2019-05-19T14:20:07.511Z,4.47
2019-05-19T14:22:35.884Z,5.10
2019-05-19T14:25:05.600Z,5.20
2019-05-19T14:27:33.977Z,4.92
2019-05-19T14:30:02.360Z,5.53
2019-05-19T14:32:30.807Z,5.37
2019-05-19T14:34:59.191Z,5.87
2019-05-19T14:37:27.583Z,5.33
2019-05-19T14:39:56.035Z,7.20
2019-05-19T14:42:42.564Z,5.40
2019-05-19T14:45:11.744Z,6.17
2019-05-19T14:47:40.120Z,6.85
2019-05-19T14:50:09.044Z,6.17
2019-05-19T14:52:37.432Z,5.60
2019-05-19T14:55:06.961Z,17.17
2019-05-19T14:57:44.369Z,19.13
2019-05-19T15:00:06.639Z,18.80
2019-05-19T15:02:35.012Z,19.13
2019-05-19T15:05:03.772Z,20.23
2019-05-19T15:07:32.154Z,21.13
2019-05-19T15:10:00.531Z,19.33
2019-05-19T15:12:28.993Z,18.17
2019-05-19T15:14:57.398Z,19.93
2019-05-19T15:17:25.776Z,18.63
2019-05-19T15:19:54.163Z,23.53
2019-05-19T15:22:22.543Z,24.07
2019-05-19T15:24:50.927Z,19.10
2019-05-19T15:27:19.332Z,26.50
2019-05-19T15:29:47.719Z,26.90
2019-05-19T15:32:16.175Z,25.63
2019-05-19T15:34:44.552Z,3.67
2019-05-19T15:37:12.936Z,3.00
2019-05-19T15:39:41.303Z,2.60
2019-05-19T15:42:09.684Z,2.97
2019-05-19T15:44:38.090Z,3.00
2019-05-19T15:47:06.440Z,3.50
2019-05-19T15:49:34.811Z,4.43
2019-05-19T15:52:05.375Z,4.20
2019-05-19T15:54:33.362Z,5.17
2019-05-19T15:57:01.740Z,5.37
2019-05-19T15:59:30.124Z,6.07
2019-05-19T16:01:58.566Z,6.63
2019-05-19T16:04:26.931Z,8.43
2019-05-19T16:06:55.316Z,8.77
2019-05-19T16:09:23.691Z,9.80
2019-05-19T16:11:52.080Z,11.40
2019-05-19T16:14:20.451Z,13.13
2019-05-19T16:16:48.843Z,17.27
2019-05-19T16:19:17.215Z,19.83
2019-05-19T16:21:45.603Z,25.70
2019-05-19T16:24:13.991Z,23.50
2019-05-19T16:26:42.367Z,22.73
2019-05-19T16:29:10.755Z,24.33
2019-05-19T16:31:39.135Z,26.23
2019-05-19T16:34:07.550Z,24.87
2019-05-19T16:36:35.988Z,24.57
2019-05-19T16:39:06.308Z,16.43
2019-05-19T16:41:34.710Z,12.60
2019-05-19T16:44:03.251Z,14.80
2019-05-19T16:46:31.635Z,15.73
2019-05-19T16:49:00.023Z,15.97
2019-05-19T16:51:28.404Z,14.50
2019-05-19T16:54:00.412Z,14.00
2019-05-19T16:56:28.793Z,15.53
2019-05-19T16:58:57.171Z,16.00
2019-05-19T17:01:25.555Z,16.70
2019-05-19T17:03:53.970Z,20.03
2019-05-19T17:06:22.328Z,20.50
2019-05-19T17:08:50.721Z,20.20
2019-05-19T17:11:19.104Z,21.60
2019-05-19T17:13:47.498Z,20.43
2019-05-19T17:16:15.875Z,20.77
2019-05-19T17:18:44.256Z,23.47
2019-05-19T17:21:12.652Z,22.30
2019-05-19T17:23:41.040Z,19.10
2019-05-19T17:26:09.419Z,19.63
2019-05-19T17:28:37.860Z,19.33
2019-05-19T17:31:07.693Z,18.00
2019-05-19T17:33:36.339Z,19.43
2019-05-19T17:36:04.719Z,19.87
2019-05-19T17:38:33.101Z,14.00
2019-05-19T17:41:01.476Z,11.23
2019-05-19T17:43:29.886Z,9.43
2019-05-19T17:45:58.311Z,9.67
2019-05-19T17:48:27.087Z,8.03
2019-05-19T17:50:55.639Z,8.97
2019-05-19T17:53:24.099Z,9.80
2019-05-19T17:55:54.232Z,10.67
2019-05-19T17:58:23.147Z,10.03
2019-05-19T18:00:51.528Z,11.77
2019-05-19T18:03:19.980Z,13.10
2019-05-19T18:05:48.355Z,14.10
2019-05-19T18:08:16.744Z,12.67
2019-05-19T18:10:47.433Z,13.70
2019-05-19T18:13:15.803Z,11.50
2019-05-19T18:15:44.176Z,11.67
2019-05-19T18:18:12.554Z,11.13
2019-05-19T18:20:40.940Z,11.20
2019-05-19T18:23:09.324Z,9.67
2019-05-19T18:25:37.754Z,11.07
2019-05-19T18:28:06.208Z,10.43
2019-05-19T18:30:34.696Z,10.57
2019-05-19T18:33:03.142Z,9.70
2019-05-19T18:35:31.555Z,10.37
2019-05-19T18:37:59.948Z,9.70
2019-05-19T18:40:28.311Z,8.83
2019-05-19T18:42:56.683Z,8.83
2019-05-19T18:45:25.072Z,11.13
2019-05-19T18:47:53.467Z,12.33
2019-05-19T18:50:21.848Z,14.03
2019-05-19T18:52:50.223Z,15.17
2019-05-19T18:55:18.619Z,14.93
2019-05-19T18:57:47.002Z,15.27
2019-05-19T19:00:18.452Z,16.37
2019-05-19T19:02:48.013Z,16.60
2019-05-19T19:05:16.601Z,17.53
2019-05-19T19:07:52.792Z,18.70
2019-05-19T19:10:21.300Z,18.80
2019-05-19T19:12:49.661Z,18.37
2019-05-19T19:15:18.050Z,19.10
2019-05-19T19:17:46.445Z,19.37
2019-05-19T19:20:15.261Z,18.93
2019-05-19T19:22:43.645Z,18.53
2019-05-19T19:25:12.212Z,21.20
2019-05-19T19:27:40.591Z,20.83
2019-05-19T19:30:09.552Z,20.87
2019-05-19T19:32:37.936Z,21.53
2019-05-19T19:35:07.201Z,22.80
2019-05-19T19:37:35.583Z,22.30
2019-05-19T19:40:06.913Z,23.60
2019-05-19T19:42:35.292Z,26.60
2019-05-19T19:45:04.620Z,27.70
2019-05-19T19:47:33.008Z,29.93
2019-05-19T19:50:01.431Z,32.57
2019-05-19T19:52:29.840Z,34.93
2019-05-19T19:54:58.232Z,34.30
2019-05-19T19:57:26.603Z,32.60
2019-05-19T19:59:54.992Z,31.73
2019-05-19T20:02:23.371Z,33.30
2019-05-19T20:05:11.164Z,33.93
2019-05-19T20:07:39.560Z,34.30
2019-05-19T20:10:08.108Z,37.77
2019-05-19T20:12:36.500Z,38.33
2019-05-19T20:15:05.623Z,40.00
2019-05-19T20:17:34.003Z,41.07
2019-05-19T20:20:02.404Z,39.17
2019-05-19T20:22:30.772Z,42.17
2019-05-19T20:24:59.164Z,41.53
2019-05-19T20:27:27.558Z,40.17
2019-05-19T20:29:55.943Z,36.57
2019-05-19T20:32:24.310Z,33.93
2019-05-19T20:34:52.699Z,34.57
2019-05-19T20:37:21.079Z,32.37
2019-05-19T20:39:49.456Z,33.33
2019-05-19T20:42:17.849Z,34.23
2019-05-19T20:44:46.224Z,33.77
2019-05-19T20:47:14.620Z,34.63
2019-05-19T20:49:42.997Z,34.43
2019-05-19T20:52:11.367Z,33.17
2019-05-19T20:54:40.036Z,34.93
2019-05-19T20:57:08.415Z,33.70
2019-05-19T20:59:36.787Z,33.00
2019-05-19T21:02:05.243Z,33.43
2019-05-19T21:04:33.618Z,34.80
2019-05-19T21:07:02.004Z,36.00
2019-05-19T21:09:30.379Z,38.97
2019-05-19T21:11:58.767Z,37.27
2019-05-19T21:14:27.144Z,36.47
2019-05-19T21:16:55.532Z,35.97
2019-05-19T21:19:23.925Z,39.20
2019-05-19T21:21:52.304Z,41.00
2019-05-19T21:24:20.680Z,40.53
2019-05-19T21:26:49.079Z,42.30
2019-05-19T21:29:36.796Z,37.97
2019-05-19T21:32:05.188Z,34.77
2019-05-19T21:34:33.556Z,34.07
2019-05-19T21:37:01.954Z,36.00
2019-05-19T21:39:30.323Z,36.47
2019-05-19T21:41:58.973Z,36.27
2019-05-19T21:44:30.093Z,35.90
2019-05-19T21:46:58.475Z,35.80
2019-05-19T21:49:26.859Z,36.43
2019-05-19T21:51:55.238Z,37.00
2019-05-19T21:54:23.619Z,38.00
2019-05-19T21:56:51.999Z,38.97
2019-05-19T21:59:20.392Z,40.53
2019-05-19T22:01:48.773Z,40.63
2019-05-19T22:04:17.151Z,44.43
2019-05-19T22:07:03.183Z,43.97
2019-05-19T22:09:31.564Z,45.00
2019-05-19T22:11:59.955Z,43.80
2019-05-19T22:14:28.339Z,45.47
2019-05-19T22:16:56.731Z,44.03
2019-05-19T22:19:25.105Z,44.20
2019-05-19T22:21:53.499Z,42.70
2019-05-19T22:24:21.877Z,43.67
2019-05-19T22:26:50.252Z,41.07
2019-05-19T22:29:18.710Z,44.37
2019-05-19T22:31:47.091Z,43.03
2019-05-19T22:34:15.480Z,42.83
2019-05-19T22:36:43.856Z,41.87
2019-05-19T22:39:12.236Z,42.93
2019-05-19T22:41:40.616Z,44.23
2019-05-19T22:44:09.003Z,42.40
2019-05-19T22:46:37.380Z,42.50
2019-05-19T22:49:05.767Z,44.17
2019-05-19T22:51:34.135Z,44.93
2019-05-19T22:54:02.521Z,43.43
2019-05-19T22:56:30.904Z,43.33
2019-05-19T22:58:59.279Z,45.43
2019-05-19T23:01:27.656Z,44.77
2019-05-19T23:03:56.043Z,49.07
2019-05-19T23:06:24.436Z,48.63
2019-05-19T23:08:52.899Z,53.13
2019-05-19T23:11:21.295Z,53.57
2019-05-19T23:13:49.675Z,56.30
2019-05-19T23:16:18.073Z,55.43
2019-05-19T23:18:46.535Z,54.13
2019-05-19T23:21:14.916Z,55.33
2019-05-19T23:24:01.604Z,58.67
2019-05-19T23:26:29.983Z,56.67
2019-05-19T23:28:58.363Z,60.50
2019-05-19T23:31:26.759Z,62.93
2019-05-19T23:33:55.140Z,63.03
2019-05-19T23:36:23.522Z,70.30
2019-05-19T23:38:51.907Z,72.83
2019-05-19T23:41:20.288Z,83.33
2019-05-19T23:43:48.680Z,79.77
2019-05-19T23:46:17.067Z,84.30
2019-05-19T23:48:45.451Z,84.37
2019-05-19T23:51:13.848Z,87.40
2019-05-19T23:53:42.227Z,89.87
2019-05-19T23:56:10.630Z,87.57
2019-05-19T23:58:39.007Z,87.77
